Time;durP1;ratioP1;P1;durP2;ratioP2;P2;SDS_P1;SDS_P2;PMS_P1;PMS_P2;Temp;Humidity;BMP_temperature;BMP_pressure;BME280_temperature;BME280_humidity;BME280_pressure;Samples;Min_cycle;Max_cycle;Signal;HPM_P1;HPM_P2
2022/03/29 00:00:38;;;;;;;24.33;15.93;;;16.20;93.80;;;16.70;45.54;101154.56;4922679;28;98950;-42
2022/03/29 00:03:08;;;;;;;23.23;14.83;;;16.20;93.80;;;16.69;45.44;101151.97;4918969;28;97666;-44
2022/03/29 00:05:35;;;;;;;20.90;15.80;;;16.20;93.90;;;16.68;45.70;101150.25;4922705;28;97568;-41
2022/03/29 00:08:02;;;;;;;26.23;16.83;;;16.20;94.00;;;16.65;45.57;101146.78;4917964;28;99680;-43
2022/03/29 00:10:28;;;;;;;13.13;9.20;;;16.20;93.80;;;16.65;45.62;101151.25;4931233;28;99605;-46
2022/03/29 00:12:54;;;;;;;29.60;16.70;;;16.20;93.80;;;16.65;45.35;101145.94;4920796;28;118942;-47
2022/03/29 00:15:21;;;;;;;18.93;12.77;;;16.20;93.60;;;16.63;45.67;101142.47;4923282;28;101926;-41
2022/03/29 00:17:47;;;;;;;25.07;15.97;;;16.20;94.00;;;16.62;45.59;101140.72;4922700;28;99215;-45
2022/03/29 00:20:18;;;;;;;22.53;15.13;;;16.20;93.80;;;16.59;45.82;101135.56;4920486;28;98784;-44
2022/03/29 00:22:46;;;;;;;15.77;8.83;;;16.10;93.80;;;16.56;45.64;101141.06;4922358;28;99568;-41
2022/03/29 00:25:12;;;;;;;10.00;7.97;;;16.10;93.80;;;16.54;45.88;101142.97;4913352;28;99039;-41
2022/03/29 00:27:38;;;;;;;22.20;14.63;;;16.00;94.00;;;16.54;45.81;101140.31;4921571;28;97312;-41
2022/03/29 00:30:06;;;;;;;12.87;8.43;;;16.00;93.90;;;16.51;45.85;101138.66;4922636;28;99080;-45
2022/03/29 00:32:32;;;;;;;10.10;7.60;;;16.00;94.20;;;16.49;45.79;101137.00;4938463;28;97712;-43
2022/03/29 00:34:58;;;;;;;8.50;6.47;;;16.00;94.20;;;16.48;46.03;101127.28;4932197;28;110097;-44
2022/03/29 00:37:24;;;;;;;21.10;13.13;;;16.00;94.30;;;16.48;45.77;101121.97;4938150;28;96969;-43
2022/03/29 00:39:50;;;;;;;16.73;11.53;;;16.00;94.30;;;16.46;45.98;101123.84;4938659;28;97015;-46
2022/03/29 00:42:16;;;;;;;6.83;5.43;;;16.00;94.40;;;16.46;45.99;101121.19;4930274;28;127995;-45
2022/03/29 00:44:42;;;;;;;9.30;7.20;;;15.90;94.30;;;16.45;46.04;101117.66;4936275;28;128196;-43
2022/03/29 00:47:07;;;;;;;7.27;5.93;;;16.00;94.20;;;16.46;45.83;101113.19;4931563;28;97897;-46
2022/03/29 00:49:33;;;;;;;12.20;8.17;;;16.00;94.20;;;16.45;46.05;101119.47;4936501;28;99502;-45
2022/03/29 00:52:03;;;;;;;8.47;6.47;;;16.00;94.30;;;16.44;46.08;101110.63;4927737;28;118156;-44
2022/03/29 00:54:34;;;;;;;6.13;4.80;;;15.90;94.40;;;16.41;46.11;101117.91;4929044;28;106658;-41
2022/03/29 00:57:01;;;;;;;14.00;10.07;;;15.90;94.50;;;16.42;45.86;101111.66;4930975;28;98061;-42
2022/03/29 00:59:28;;;;;;;6.37;5.43;;;15.90;94.30;;;16.43;45.90;101113.38;4935946;28;97179;-45
2022/03/29 01:01:58;;;;;;;19.10;11.90;;;15.90;94.40;;;16.44;46.00;101105.31;4932868;28;97627;-44
2022/03/29 01:04:27;;;;;;;17.57;12.17;;;16.00;94.20;;;16.44;46.23;101093.78;4939271;28;97823;-41
2022/03/29 01:06:59;;;;;;;19.30;13.23;;;15.90;94.30;;;16.43;45.99;101097.41;4934049;28;97159;-44
2022/03/29 01:09:26;;;;;;;7.33;5.43;;;15.90;94.30;;;16.42;46.06;101090.34;4934249;28;97356;-44
2022/03/29 01:11:52;;;;;;;8.00;5.27;;;15.90;94.40;;;16.45;46.05;101095.50;4935126;28;98674;-44
2022/03/29 01:14:21;;;;;;;6.97;5.30;;;16.00;94.30;;;16.47;46.11;101089.16;4941198;28;101489;-46
2022/03/29 01:19:32;;;;;;;15.50;10.00;;;16.10;94.00;;;16.50;45.83;101090.81;4938617;28;102061;-45
2022/03/29 01:22:09;;;;;;;21.27;14.47;;;16.10;93.90;;;16.53;45.79;101082.66;4931530;28;102303;-40
2022/03/29 01:24:40;;;;;;;13.37;8.43;;;16.10;93.80;;;16.52;45.76;101087.13;4938765;28;97173;-45
2022/03/29 01:27:07;;;;;;;10.00;6.97;;;16.10;94.00;;;16.53;46.04;101077.34;4934513;28;97269;-43
2022/03/29 01:29:37;;;;;;;12.43;8.33;;;16.10;94.00;;;16.54;45.90;101079.06;4941571;28;97584;-44
2022/03/29 01:32:07;;;;;;;16.00;11.03;;;16.10;94.00;;;16.50;45.99;101077.50;4936498;28;97643;-42
2022/03/29 01:34:37;;;;;;;7.93;5.97;;;16.00;94.30;;;16.49;45.96;101073.09;4942266;28;101547;-42
2022/03/29 01:37:06;;;;;;;15.27;9.40;;;16.00;94.30;;;16.49;45.92;101070.44;4938002;28;97507;-45
2022/03/29 01:39:37;;;;;;;12.93;9.17;;;16.00;94.10;;;16.48;45.85;101069.56;4941254;28;103792;-42
2022/03/29 01:42:04;;;;;;;7.17;5.80;;;16.00;94.40;;;16.47;46.09;101073.19;4928151;28;98280;-44
2022/03/29 01:44:30;;;;;;;7.50;5.97;;;16.00;94.40;;;16.46;46.18;101070.59;4941450;28;97254;-41
2022/03/29 01:46:56;;;;;;;11.10;7.87;;;15.90;94.40;;;16.46;46.15;101065.28;4930244;28;97321;-44
2022/03/29 01:49:22;;;;;;;9.13;6.73;;;15.90;94.20;;;16.45;46.13;101060.91;4938444;28;118029;-42
2022/03/29 01:51:48;;;;;;;7.57;6.40;;;15.90;94.30;;;16.45;46.10;101059.09;4936599;28;98012;-43
2022/03/29 01:54:15;;;;;;;10.97;8.30;;;16.00;94.20;;;16.47;46.00;101051.00;4921744;28;97979;-45
2022/03/29 01:56:40;;;;;;;6.60;5.50;;;16.00;94.20;;;16.46;46.09;101054.63;4937275;28;97645;-42
2022/03/29 01:59:08;;;;;;;7.63;5.17;;;16.00;94.20;;;16.45;45.97;101045.78;4938690;28;118014;-41
2022/03/29 02:01:42;;;;;;;7.27;5.90;;;15.90;94.40;;;16.45;46.07;101045.78;4938204;28;97570;-47
2022/03/29 02:04:08;;;;;;;11.30;6.70;;;15.90;94.40;;;16.43;46.10;101041.47;4934284;28;112930;-44
2022/03/29 02:06:34;;;;;;;11.53;9.17;;;15.90;94.30;;;16.44;45.91;101040.53;4941810;28;97678;-40
2022/03/29 02:09:01;;;;;;;11.17;8.10;;;15.90;94.30;;;16.45;45.97;101042.25;4939289;28;98107;-41
2022/03/29 02:11:26;;;;;;;6.00;5.00;;;15.90;94.30;;;16.45;45.77;101036.94;4941600;28;97748;-45
2022/03/29 02:13:56;;;;;;;8.20;6.13;;;16.00;94.20;;;16.47;46.06;101035.03;4940360;28;127924;-44
2022/03/29 02:16:22;;;;;;;10.17;7.63;;;16.00;94.20;;;16.48;46.08;101036.75;4938413;28;122809;-46
2022/03/29 02:18:47;;;;;;;12.17;8.17;;;16.00;94.10;;;16.49;46.14;101033.16;4934521;28;107118;-42
2022/03/29 02:21:14;;;;;;;7.77;5.13;;;16.00;94.10;;;16.48;45.87;101031.44;4933961;28;97587;-44
2022/03/29 02:23:41;;;;;;;9.13;6.50;;;16.00;94.30;;;16.48;45.80;101032.28;4940639;28;97118;-41
2022/03/29 02:26:07;;;;;;;12.53;8.60;;;16.00;94.10;;;16.49;45.71;101027.81;4937936;28;97297;-47
2022/03/29 02:28:33;;;;;;;8.27;6.53;;;16.00;94.10;;;16.49;46.00;101023.38;4933903;28;97732;-46
2022/03/29 02:30:59;;;;;;;6.10;5.03;;;16.00;94.20;;;16.48;46.17;101015.47;4937174;28;111537;-45
2022/03/29 02:33:24;;;;;;;8.80;6.77;;;16.00;94.30;;;16.48;46.05;101020.78;4940485;28;127821;-43
2022/03/29 02:35:50;;;;;;;23.30;15.73;;;16.00;94.20;;;16.49;45.69;101011.84;4940868;28;118260;-42
2022/03/29 02:38:18;;;;;;;13.27;8.87;;;16.00;94.00;;;16.47;45.86;101019.06;4932416;28;116548;-44
2022/03/29 02:40:44;;;;;;;8.97;6.50;;;16.00;94.10;;;16.47;45.82;101019.06;4940097;28;97803;-43
2022/03/29 02:43:10;;;;;;;7.37;5.37;;;16.00;94.20;;;16.46;46.07;101006.69;4936506;28;97154;-43
2022/03/29 02:45:36;;;;;;;13.73;9.27;;;16.00;94.40;;;16.45;45.79;100999.66;4942251;28;97643;-42
2022/03/29 02:48:02;;;;;;;12.20;7.43;;;16.00;94.20;;;16.45;45.86;100999.66;4938624;28;117324;-45
2022/03/29 02:50:28;;;;;;;14.53;11.37;;;16.00;94.20;;;16.44;46.16;100997.94;4940048;28;98257;-40
2022/03/29 02:52:57;;;;;;;19.70;13.20;;;16.00;94.10;;;16.42;46.14;100995.38;4936259;28;97242;-45
2022/03/29 02:55:27;;;;;;;8.23;6.63;;;15.90;94.30;;;16.44;46.08;100995.28;4941573;28;97260;-41
2022/03/29 02:57:54;;;;;;;6.47;5.07;;;15.90;94.50;;;16.43;45.97;100988.22;4938301;28;99251;-47
2022/03/29 03:00:20;;;;;;;7.07;5.57;;;15.90;94.70;;;16.45;46.00;100989.00;4948516;28;102448;-40
2022/03/29 03:02:51;;;;;;;10.60;8.37;;;16.00;94.20;;;16.45;45.99;100984.53;4937325;28;97268;-42
2022/03/29 03:05:21;;;;;;;16.53;11.00;;;16.00;94.10;;;16.45;46.08;100978.34;4935756;28;97027;-40
2022/03/29 03:07:48;;;;;;;9.50;5.97;;;16.00;94.20;;;16.46;45.90;100980.06;4935891;28;97035;-43
2022/03/29 03:10:15;;;;;;;11.80;7.70;;;15.90;94.20;;;16.45;46.11;100978.34;4931089;28;114631;-44
2022/03/29 03:12:44;;;;;;;21.77;15.30;;;16.00;94.10;;;16.42;45.91;100975.88;4932123;28;97166;-40
2022/03/29 03:15:18;;;;;;;25.73;16.47;;;15.90;94.30;;;16.32;46.45;100975.50;4937939;28;97604;-43
2022/03/29 03:17:44;;;;;;;26.93;16.43;;;15.70;95.20;;;16.29;46.44;100983.66;4935395;28;97326;-41
2022/03/29 03:20:12;;;;;;;17.60;12.70;;;15.70;94.70;;;16.26;46.54;100968.72;4935845;28;98360;-48
2022/03/29 03:22:40;;;;;;;6.60;5.23;;;15.70;94.90;;;16.23;46.65;100974.22;4935587;28;97158;-43
2022/03/29 03:25:07;;;;;;;25.53;13.63;;;15.60;95.10;;;16.26;46.37;100966.06;4937072;28;97005;-43
2022/03/29 03:27:36;;;;;;;6.43;5.40;;;15.70;94.80;;;16.28;46.62;100965.97;4940575;28;97316;-40
2022/03/29 03:30:09;;;;;;;6.90;5.53;;;15.80;94.80;;;16.29;46.16;100957.91;4937824;28;98219;-45
2022/03/29 03:32:35;;;;;;;10.37;7.13;;;15.80;94.70;;;16.28;46.55;100956.19;4938008;28;98140;-42
2022/03/29 03:35:00;;;;;;;12.67;9.13;;;15.80;94.70;;;16.30;46.24;100953.44;4937534;28;97253;-42
2022/03/29 03:37:26;;;;;;;26.80;16.50;;;15.80;94.50;;;16.29;46.31;100952.56;4937155;28;97348;-47
2022/03/29 03:39:52;;;;;;;26.00;18.67;;;15.80;94.40;;;16.28;46.18;100956.19;4937840;28;97638;-45
2022/03/29 03:42:18;;;;;;;20.00;11.53;;;15.80;94.40;;;16.26;46.30;100955.41;4937181;28;102266;-47
2022/03/29 03:44:44;;;;;;;19.60;13.47;;;15.70;94.50;;;16.25;46.39;100959.03;4940280;28;104856;-41
2022/03/29 03:47:10;;;;;;;17.97;11.60;;;15.70;94.60;;;16.25;46.42;100951.03;4930078;28;118109;-46
2022/03/29 03:49:38;;;;;;;7.60;5.90;;;15.80;94.40;;;16.29;46.38;100941.06;4938335;28;126579;-42
2022/03/29 03:52:05;;;;;;;19.13;11.53;;;15.80;94.50;;;16.27;46.28;100943.81;4932643;28;97665;-42
2022/03/29 03:54:34;;;;;;;11.47;6.90;;;15.80;94.40;;;16.28;46.25;100939.34;4951704;28;97302;-41
2022/03/29 03:57:00;;;;;;;26.10;16.07;;;15.80;94.50;;;16.27;46.17;100938.50;4933649;28;97104;-40
2022/03/29 03:59:25;;;;;;;24.77;14.10;;;15.80;94.40;;;16.27;46.22;100942.97;4937683;28;129318;-40
2022/03/29 04:01:51;;;;;;;26.07;14.87;;;15.70;94.40;;;16.26;46.34;100936.78;4939646;28;97455;-44
2022/03/29 04:04:17;;;;;;;11.47;7.60;;;15.70;94.50;;;16.28;46.24;100932.22;4937567;28;97664;-43
2022/03/29 04:06:43;;;;;;;13.47;8.07;;;15.80;94.50;;;16.30;46.17;100929.47;4939821;28;97284;-43
2022/03/29 04:09:08;;;;;;;13.30;9.63;;;15.80;94.50;;;16.30;46.46;100926.81;4933758;28;127640;-40
2022/03/29 04:11:34;;;;;;;26.20;16.50;;;15.80;94.60;;;16.33;46.20;100923.97;4939354;28;110048;-42
2022/03/29 04:14:00;;;;;;;8.03;5.43;;;15.80;94.30;;;16.31;46.19;100916.09;4930530;28;118403;-40
2022/03/29 04:16:27;;;;;;;22.20;13.53;;;15.80;94.50;;;16.32;46.29;100914.28;4939525;28;97309;-41
2022/03/29 04:18:53;;;;;;;11.43;7.77;;;15.80;94.40;;;16.29;46.32;100914.44;4936239;28;97918;-45
2022/03/29 04:21:19;;;;;;;9.70;6.50;;;15.70;94.70;;;16.30;46.23;100906.38;4937250;28;128774;-45
2022/03/29 04:23:44;;;;;;;29.50;17.43;;;15.80;94.60;;;16.30;46.33;100903.72;4934534;28;117276;-40
2022/03/29 04:26:11;;;;;;;21.00;12.57;;;15.70;94.50;;;16.28;46.33;100902.94;4935627;28;116502;-41
2022/03/29 04:28:37;;;;;;;11.47;7.77;;;15.70;94.60;;;16.27;46.52;100898.56;4930794;28;97620;-41
2022/03/29 04:31:03;;;;;;;21.80;13.37;;;15.70;94.70;;;16.27;46.25;100901.22;4936099;28;97541;-42
2022/03/29 04:33:29;;;;;;;7.83;5.77;;;15.70;94.60;;;16.25;46.50;100902.25;4930352;28;97146;-44
2022/03/29 04:35:55;;;;;;;7.07;5.90;;;15.60;95.00;;;16.23;46.62;100893.50;4938366;28;97761;-45
2022/03/29 04:38:23;;;;;;;16.73;11.83;;;15.60;95.00;;;16.23;46.56;100889.03;4937824;28;97749;-41
2022/03/29 04:40:49;;;;;;;15.77;10.03;;;15.60;94.70;;;16.18;46.56;100891.09;4935536;28;98341;-44
2022/03/29 04:43:15;;;;;;;8.13;5.67;;;15.60;95.00;;;16.17;46.54;100889.38;4933953;28;97024;-42
2022/03/29 04:45:41;;;;;;;20.80;12.90;;;15.60;95.20;;;16.17;46.75;100889.38;4939207;28;114637;-43
2022/03/29 04:48:07;;;;;;;6.57;5.23;;;15.60;95.00;;;16.18;46.53;100885.75;4932623;28;101711;-43
2022/03/29 04:50:33;;;;;;;13.40;9.70;;;15.60;95.10;;;16.21;46.58;100884.75;4942439;28;97254;-45
2022/03/29 04:52:59;;;;;;;9.57;7.30;;;15.60;94.80;;;16.17;46.43;100878.72;4928502;28;109573;-41
2022/03/29 04:55:25;;;;;;;9.27;7.53;;;15.60;95.00;;;16.16;46.73;100874.34;4940455;28;116743;-43
2022/03/29 04:57:51;;;;;;;16.00;10.20;;;15.50;95.30;;;16.16;46.58;100879.66;4923515;28;98134;-42
2022/03/29 05:00:20;;;;;;;25.83;14.60;;;15.50;95.20;;;16.14;46.62;100873.56;4925388;28;98852;-47
2022/03/29 05:02:47;;;;;;;26.70;16.07;;;15.50;95.20;;;16.12;46.75;100875.47;4936227;28;97439;-41
2022/03/29 05:05:14;;;;;;;11.70;6.87;;;15.40;95.20;;;16.11;46.98;100863.09;4939821;28;99079;-44
2022/03/29 05:07:43;;;;;;;7.23;6.00;;;15.40;95.50;;;16.15;46.77;100856.66;4921977;28;97557;-41
2022/03/29 05:10:11;;;;;;;6.57;5.13;;;15.50;95.20;;;16.16;46.61;100855.72;4933295;28;97254;-41
2022/03/29 05:12:46;;;;;;;8.60;5.97;;;15.60;95.30;;;16.20;46.54;100851.97;4940188;28;97216;-41
2022/03/29 05:15:16;;;;;;;19.07;9.33;;;15.60;95.00;;;16.21;46.67;100851.03;4940662;28;97307;-40
2022/03/29 05:17:43;;;;;;;11.97;7.53;;;15.60;94.80;;;16.23;46.51;100851.78;4941536;28;108598;-41
2022/03/29 05:20:10;;;;;;;10.67;8.47;;;15.70;94.80;;;16.25;46.36;100855.22;4945595;28;97919;-42
2022/03/29 05:22:47;;;;;;;22.33;15.67;;;15.70;94.80;;;16.21;46.44;100853.69;4941846;28;96785;-46
2022/03/29 05:25:15;;;;;;;23.00;15.80;;;15.60;94.70;;;16.18;46.47;100858.28;4932360;28;97635;-40
2022/03/29 05:27:42;;;;;;;18.80;12.40;;;15.50;94.90;;;16.13;46.84;100855.88;4932898;28;98388;-43
2022/03/29 05:30:10;;;;;;;27.07;16.87;;;15.40;95.20;;;16.13;46.80;100853.22;4937165;28;97855;-43
2022/03/29 05:32:35;;;;;;;12.57;7.60;;;15.50;95.10;;;16.14;46.56;100852.28;4936473;28;97413;-40
2022/03/29 05:35:02;;;;;;;16.17;11.20;;;15.50;95.20;;;16.16;46.64;100850.41;4940069;28;97250;-44
2022/03/29 05:37:29;;;;;;;9.43;5.70;;;15.50;95.00;;;16.18;46.72;100851.16;4941228;28;97608;-41
2022/03/29 05:39:55;;;;;;;18.53;12.77;;;15.60;95.00;;;16.17;46.60;100854.78;4938393;28;97455;-42
2022/03/29 05:42:21;;;;;;;13.57;9.03;;;15.60;94.80;;;16.14;46.63;100846.97;4940299;28;96929;-42
2022/03/29 05:44:47;;;;;;;13.93;11.33;;;15.50;95.50;;;16.16;46.46;100850.41;4941380;28;97575;-43
2022/03/29 05:49:57;;;;;;;27.73;15.97;;;15.50;94.70;;;16.07;46.84;100850.94;4936436;28;97633;-45
2022/03/29 05:52:24;;;;;;;29.10;19.03;;;15.40;95.40;;;16.00;46.78;100860.16;4939948;28;97186;-42
2022/03/29 05:54:49;;;;;;;25.40;14.00;;;15.30;95.60;;;15.95;47.34;100856.91;4940039;28;97445;-41
2022/03/29 05:57:16;;;;;;;12.43;7.10;;;15.30;95.70;;;15.96;47.22;100863.94;4934186;28;97532;-45
2022/03/29 05:59:46;;;;;;;10.23;6.60;;;15.30;95.60;;;15.99;46.99;100853.13;4940580;28;111738;-42
2022/03/29 06:02:12;;;;;;;17.40;12.47;;;15.30;95.70;;;16.02;47.03;100860.94;4927973;28;106301;-44
2022/03/29 06:04:39;;;;;;;19.90;13.30;;;15.40;95.20;;;16.01;46.76;100856.56;4941137;28;97233;-41
2022/03/29 06:07:05;;;;;;;10.53;7.00;;;15.40;95.40;;;16.05;47.01;100858.09;4936841;28;97597;-45
2022/03/29 06:09:36;;;;;;;7.90;6.17;;;15.50;95.40;;;16.03;46.79;100860.00;4940002;28;101354;-43
2022/03/29 06:12:02;;;;;;;27.03;17.43;;;15.40;95.60;;;16.04;46.87;100861.72;4938543;28;97483;-45
2022/03/29 06:14:29;;;;;;;11.57;8.27;;;15.40;95.30;;;16.04;47.08;100872.34;4940885;28;99078;-41
2022/03/29 06:16:55;;;;;;;17.77;12.13;;;15.40;95.50;;;16.05;47.03;100874.94;4938571;28;99707;-45
2022/03/29 06:19:22;;;;;;;11.77;7.43;;;15.40;95.30;;;16.08;46.74;100873.94;4939791;28;97115;-45
2022/03/29 06:21:47;;;;;;;9.53;7.13;;;15.50;95.30;;;16.10;46.97;100882.69;4941052;28;108034;-41
2022/03/29 06:24:13;;;;;;;13.30;9.60;;;15.50;95.20;;;16.13;46.74;100881.66;4932219;28;104372;-43
2022/03/29 06:26:39;;;;;;;23.57;15.67;;;15.60;95.10;;;16.11;46.86;100879.06;4937198;28;98463;-46
2022/03/29 06:29:09;;;;;;;29.27;17.73;;;15.50;95.20;;;16.07;46.75;100888.19;4933819;28;128080;-40
2022/03/29 06:31:36;;;;;;;30.20;20.07;;;15.50;95.40;;;16.09;46.91;100878.31;4940599;28;97382;-45
2022/03/29 06:34:02;;;;;;;8.97;7.03;;;15.50;95.50;;;16.13;46.78;100884.31;4933623;28;99074;-41
2022/03/29 06:36:28;;;;;;;7.50;5.53;;;15.60;95.20;;;16.21;46.74;100876.78;4940591;28;104969;-43
2022/03/29 06:38:55;;;;;;;30.73;18.77;;;15.70;94.80;;;16.22;46.50;100879.34;4932001;28;126538;-43
2022/03/29 06:41:21;;;;;;;11.27;8.23;;;15.80;94.90;;;16.23;46.52;100883.72;4940915;28;97864;-46
2022/03/29 06:43:47;;;;;;;11.13;8.53;;;15.70;95.20;;;16.25;46.59;100889.81;4939314;28;97813;-46
2022/03/29 06:46:14;;;;;;;9.47;6.67;;;15.80;95.10;;;16.32;46.41;100893.84;4934878;28;98271;-46
2022/03/29 06:48:41;;;;;;;23.73;16.47;;;15.90;94.80;;;16.35;46.09;100893.69;4942519;28;128312;-44
2022/03/29 06:51:12;;;;;;;35.57;22.67;;;15.90;94.80;;;16.31;46.25;100892.13;4936988;28;99099;-44
2022/03/29 06:53:39;;;;;;;11.23;6.80;;;15.80;95.00;;;16.36;46.10;100895.41;4937705;28;97035;-47
2022/03/29 06:56:08;;;;;;;8.70;5.60;;;15.90;94.80;;;16.42;45.92;100891.53;4937564;28;97845;-41
2022/03/29 06:58:38;;;;;;;9.83;7.40;;;16.00;94.50;;;16.47;46.15;100892.13;4943814;28;127868;-43
2022/03/29 07:01:04;;;;;;;25.40;17.10;;;16.00;94.40;;;16.49;45.85;100895.59;4937418;28;97486;-43
2022/03/29 07:03:35;;;;;;;10.03;7.57;;;16.10;94.20;;;16.48;45.84;100880.53;4940014;28;97787;-46
2022/03/29 07:06:03;;;;;;;26.47;18.73;;;16.00;94.70;;;16.49;45.69;100884.03;4936374;28;98667;-46
2022/03/29 07:08:30;;;;;;;8.07;5.70;;;16.00;94.40;;;16.48;46.13;100888.50;4940324;28;98640;-42
2022/03/29 07:13:42;;;;;;;14.20;10.53;;;16.00;94.80;;;16.56;45.71;100885.44;4940427;28;97100;-43
2022/03/29 07:16:09;;;;;;;6.20;4.93;;;16.20;94.10;;;16.67;45.47;100883.06;4936182;28;97801;-44
2022/03/29 07:18:35;;;;;;;6.63;5.43;;;16.40;93.80;;;16.79;45.04;100887.69;4940762;28;97698;-42
2022/03/29 07:21:01;;;;;;;6.97;5.43;;;16.60;93.30;;;16.92;44.95;100878.03;4930042;28;105007;-45
2022/03/29 07:23:29;;;;;;;15.03;10.97;;;16.80;92.80;;;17.02;44.65;100882.78;4937602;28;97845;-45
2022/03/29 07:25:56;;;;;;;10.00;5.90;;;17.00;92.60;;;17.05;44.52;100882.59;4931239;28;101682;-48
2022/03/29 07:28:23;;;;;;;22.77;15.27;;;16.90;92.70;;;17.08;44.55;100887.78;4944621;28;97189;-44
2022/03/29 07:30:50;;;;;;;16.43;12.37;;;17.00;92.60;;;17.13;44.18;100888.34;4938697;28;97545;-47
2022/03/29 07:33:19;;;;;;;30.53;20.13;;;17.00;92.60;;;17.17;44.44;100888.06;4938224;28;97583;-44
2022/03/29 07:35:46;;;;;;;8.13;6.73;;;17.00;92.10;;;17.21;44.14;100899.41;4941074;28;98323;-47
2022/03/29 07:38:13;;;;;;;19.23;13.03;;;17.10;92.40;;;17.25;44.01;100890.31;4937515;28;114968;-45
2022/03/29 07:40:41;;;;;;;16.30;12.10;;;17.10;92.00;;;17.28;43.94;100882.13;4938314;28;100787;-43
2022/03/29 07:43:09;;;;;;;7.47;5.50;;;17.20;92.10;;;17.32;43.97;100886.31;4938020;28;97418;-44
2022/03/29 07:45:35;;;;;;;20.37;12.37;;;17.20;92.00;;;17.34;43.71;100879.06;4938604;28;97992;-45
2022/03/29 07:48:03;;;;;;;6.90;5.10;;;17.20;91.90;;;17.36;44.04;100870.97;4937274;28;127137;-42
2022/03/29 07:50:33;;;;;;;13.23;10.43;;;17.20;91.90;;;17.31;43.36;100868.59;4939799;28;100081;-48
2022/03/29 07:53:00;;;;;;;7.03;6.27;;;17.20;91.90;;;17.04;44.35;100864.91;4933876;28;97717;-48
2022/03/29 07:55:27;;;;;;;14.87;11.87;;;17.10;91.90;;;16.99;44.56;100861.66;4936776;28;97485;-42
2022/03/29 07:57:54;;;;;;;26.53;21.83;;;17.20;91.80;;;17.02;43.86;100861.47;4934769;28;97578;-47
2022/03/29 08:00:31;;;;;;;33.87;24.77;;;17.20;91.50;;;16.79;43.93;100861.03;4932941;28;122064;-43
2022/03/29 08:03:06;;;;;;;23.20;17.33;;;16.80;92.00;;;16.55;45.54;100868.59;4929813;28;97359;-43
2022/03/29 08:05:33;;;;;;;24.40;17.97;;;16.60;92.70;;;16.61;45.09;100868.22;4937767;28;97665;-46
2022/03/29 08:08:00;;;;;;;28.17;20.53;;;16.70;92.50;;;16.87;44.66;100857.91;4934098;28;98727;-45
2022/03/29 08:10:28;;;;;;;19.83;14.63;;;16.90;91.90;;;17.05;44.26;100861.28;4934294;28;96717;-46
2022/03/29 08:13:00;;;;;;;19.13;14.20;;;17.10;91.90;;;17.19;43.81;100858.66;4934889;28;98026;-45
2022/03/29 08:15:28;;;;;;;17.43;13.10;;;17.20;91.50;;;17.26;43.96;100860.03;4928099;28;101905;-41
2022/03/29 08:17:56;;;;;;;16.67;12.50;;;17.40;91.40;;;17.37;43.37;100856.72;4915869;28;99696;-49
2022/03/29 08:20:22;;;;;;;17.20;13.30;;;17.40;91.20;;;17.44;43.41;100850.91;4921214;28;98809;-46
2022/03/29 08:22:48;;;;;;;15.70;12.47;;;17.60;91.00;;;17.53;43.34;100853.03;4918823;28;97028;-42
2022/03/29 08:25:15;;;;;;;14.43;10.63;;;17.70;90.80;;;17.60;42.86;100857.97;4915214;28;100050;-44
2022/03/29 08:27:43;;;;;;;13.43;11.27;;;17.70;90.60;;;17.71;42.86;100850.19;4920977;28;99050;-41
2022/03/29 08:30:10;;;;;;;15.70;11.90;;;17.80;90.50;;;17.78;42.63;100846.19;4916801;28;104326;-45
2022/03/29 08:32:37;;;;;;;15.10;10.93;;;17.90;90.40;;;17.79;42.74;100843.44;4922322;28;98510;-41
2022/03/29 08:35:05;;;;;;;13.67;10.30;;;17.90;90.30;;;17.83;42.34;100844.94;4916322;28;98447;-46
2022/03/29 08:37:30;;;;;;;12.43;9.93;;;18.00;90.30;;;17.67;42.71;100845.97;4917662;28;110735;-58
2022/03/29 08:39:56;;;;;;;13.17;11.23;;;17.90;90.20;;;17.59;43.18;100850.91;4916677;28;98495;-49
2022/03/29 08:42:23;;;;;;;15.73;11.77;;;17.80;90.50;;;17.77;42.79;100839.13;4918972;28;97558;-44
2022/03/29 08:44:50;;;;;;;15.37;10.73;;;17.90;90.40;;;17.86;42.42;100838.56;4936048;28;99299;-46
2022/03/29 08:47:17;;;;;;;14.03;10.83;;;18.00;90.00;;;17.90;42.57;100834.72;4915816;28;98538;-47
2022/03/29 08:49:49;;;;;;;10.40;8.93;;;18.00;90.20;;;17.94;42.37;100830.94;4921789;28;99296;-44
2022/03/29 08:52:17;;;;;;;20.57;17.23;;;18.00;90.10;;;17.88;41.31;100830.44;4915635;28;101046;-42
2022/03/29 08:54:44;;;;;;;11.03;8.40;;;17.90;88.70;;;17.91;42.41;100831.09;4929392;28;98086;-42
2022/03/29 08:57:11;;;;;;;23.67;18.47;;;17.90;90.20;;;17.89;41.36;100827.69;4916404;28;98956;-44
2022/03/29 08:59:40;;;;;;;13.90;10.83;;;17.90;88.70;;;17.84;42.30;100824.47;4918484;28;98735;-47
2022/03/29 09:02:16;;;;;;;8.70;7.77;;;17.80;90.20;;;17.83;42.36;100817.41;4919220;28;100414;-44
2022/03/29 09:04:44;;;;;;;11.73;9.67;;;17.80;90.30;;;17.83;42.12;100817.41;4918855;28;99112;-44
2022/03/29 09:07:10;;;;;;;15.03;11.93;;;17.80;89.70;;;17.78;42.25;100808.81;4917183;28;105361;-46
2022/03/29 09:09:44;;;;;;;15.50;13.13;;;17.70;89.50;;;17.68;42.58;100815.69;4923401;28;107829;-45
2022/03/29 09:12:10;;;;;;;18.83;15.30;;;17.50;89.80;;;17.64;42.68;100816.81;4918564;28;99509;-47
2022/03/29 09:14:59;;;;;;;21.23;16.43;;;17.50;90.30;;;17.50;42.45;100810.53;4918887;28;99333;-43
2022/03/29 09:17:38;;;;;;;20.33;15.93;;;17.30;90.20;;;17.47;43.14;100816.03;4916945;28;101326;-45
2022/03/29 09:20:12;;;;;;;8.67;7.27;;;17.20;90.70;;;17.44;43.35;100810.91;4916471;28;98116;-47
2022/03/29 09:22:51;;;;;;;21.70;15.93;;;17.20;91.20;;;17.42;42.55;100819.97;4920148;28;100181;-44
2022/03/29 09:25:18;;;;;;;16.10;14.07;;;17.20;90.30;;;17.37;43.12;100814.06;4914045;28;98576;-45
2022/03/29 09:28:00;;;;;;;20.10;14.50;;;17.10;90.50;;;17.35;43.32;100816.78;4918589;28;101121;-43
2022/03/29 09:30:40;;;;;;;20.47;13.73;;;17.10;90.90;;;17.32;43.58;100808.13;4926232;28;100992;-45
2022/03/29 09:33:30;;;;;;;6.67;5.97;;;17.00;91.10;;;17.34;43.64;100804.41;4919328;28;98579;-45
2022/03/29 09:36:04;;;;;;;5.83;4.80;;;17.10;91.40;;;17.34;43.40;100804.41;4920104;28;100702;-42
2022/03/29 09:38:40;;;;;;;11.70;10.30;;;17.20;91.20;;;17.36;42.86;100802.53;4922893;28;98487;-43
2022/03/29 09:41:28;;;;;;;18.30;14.90;;;17.20;90.40;;;17.30;42.92;100800.22;4919504;28;99903;-44
2022/03/29 09:44:05;;;;;;;5.53;4.77;;;17.10;90.90;;;17.26;43.41;100801.38;4919225;28;105881;-45
2022/03/29 09:46:52;;;;;;;8.97;6.43;;;17.00;91.40;;;17.27;43.71;100792.44;4929990;28;102213;-45
2022/03/29 09:49:19;;;;;;;15.17;12.93;;;17.00;91.40;;;17.29;43.23;100785.19;4921458;28;101266;-47
2022/03/29 09:51:46;;;;;;;7.30;6.60;;;17.10;90.80;;;17.29;43.46;100787.00;4924260;28;99220;-42
2022/03/29 09:54:12;;;;;;;7.40;5.97;;;17.10;91.20;;;17.28;43.33;100783.47;4921373;28;98927;-45
2022/03/29 09:56:38;;;;;;;15.63;13.23;;;17.10;91.00;;;17.29;41.67;100777.19;4923869;28;98361;-44
2022/03/29 09:59:14;;;;;;;6.80;5.90;;;17.20;89.50;;;17.36;43.45;100769.66;4920784;28;106409;-41
2022/03/29 10:01:57;;;;;;;5.00;3.80;;;17.30;91.10;;;17.45;43.40;100766.44;4924730;28;97335;-48
2022/03/29 10:04:25;;;;;;;9.73;8.00;;;17.40;91.00;;;17.53;43.23;100759.69;4922131;28;97685;-46
2022/03/29 10:06:55;;;;;;;4.63;3.80;;;17.60;90.60;;;17.62;42.91;100765.38;4924602;28;98068;-43
2022/03/29 10:09:35;;;;;;;15.17;13.10;;;17.70;90.50;;;17.71;42.55;100755.00;4924597;28;101820;-41
2022/03/29 10:12:07;;;;;;;17.53;14.33;;;17.80;89.50;;;17.70;40.08;100763.13;4923840;28;99849;-45
2022/03/29 10:14:40;;;;;;;6.03;4.83;;;17.70;86.60;;;17.70;42.83;100749.78;4926331;28;99923;-45